Time;durP1;ratioP1;P1;durP2;ratioP2;P2;SDS_P1;SDS_P2;PMS_P1;PMS_P2;Temp;Humidity;BMP_temperature;BMP_pressure;BME280_temperature;BME280_humidity;BME280_pressure;Samples;Min_cycle;Max_cycle;Signal;HPM_P1;HPM_P2
2023/03/25 00:00:17;;;;;;;;;;;;;;;;;;5053593;28;20361;-66
2023/03/25 00:02:47;;;;;;;;;;;;;;;;;;5053028;28;19921;-66
2023/03/25 00:05:13;;;;;;;;;;;;;;;;;;5052520;28;19916;-67
2023/03/25 00:07:40;;;;;;;;;;;;;;;;;;5053816;28;19916;-67
2023/03/25 00:10:06;;;;;;;;;;;;;;;;;;5053221;28;19941;-67
2023/03/25 00:12:32;;;;;;;;;;;;;;;;;;5052292;28;20281;-67
2023/03/25 00:14:58;;;;;;;;;;;;;;;;;;5053536;28;19912;-66
2023/03/25 00:17:30;;;;;;;;;;;;;;;;;;5051841;28;20000;-66
2023/03/25 00:19:56;;;;;;;;;;;;;;;;;;5053667;28;20423;-67
2023/03/25 00:22:22;;;;;;;;;;;;;;;;;;5053426;28;19916;-67
2023/03/25 00:24:48;;;;;;;;;;;;;;;;;;5053033;28;19913;-66
2023/03/25 00:27:16;;;;;;;;;;;;;;;;;;5053427;28;19909;-67
2023/03/25 00:29:42;;;;;;;;;;;;;;;;;;5052095;28;19909;-67
2023/03/25 00:32:08;;;;;;;;;;;;;;;;;;5052955;28;20004;-67
2023/03/25 00:34:34;;;;;;;;;;;;;;;;;;5053338;28;19948;-67
2023/03/25 00:37:01;;;;;;;;;;;;;;;;;;5052049;28;19916;-67
2023/03/25 00:39:27;;;;;;;;;;;;;;;;;;5052884;28;19916;-66
2023/03/25 00:41:56;;;;;;;;;;;;;;;;;;5053256;28;19917;-66
2023/03/25 00:44:22;;;;;;;;;;;;;;;;;;5053391;28;19998;-67
2023/03/25 00:46:48;;;;;;;;;;;;;;;;;;5052807;28;19913;-67
2023/03/25 00:49:14;;;;;;;;;;;;;;;;;;5055938;28;19916;-67
2023/03/25 00:51:40;;;;;;;;;;;;;;;;;;5055985;28;20023;-67
2023/03/25 00:54:06;;;;;;;;;;;;;;;;;;5056627;28;20327;-66
2023/03/25 00:56:32;;;;;;;;;;;;;;;;;;5055907;28;19941;-66
2023/03/25 00:58:58;;;;;;;;;;;;;;;;;;5056448;28;19994;-66
2023/03/25 01:01:26;;;;;;;;;;;;;;;;;;5056711;28;19920;-66
2023/03/25 01:03:56;;;;;;;;;;;;;;;;;;5056794;28;20316;-67
2023/03/25 01:06:23;;;;;;;;;;;;;;;;;;5056368;28;20357;-67
2023/03/25 01:08:49;;;;;;;;;;;;;;;;;;5056752;28;19932;-67
2023/03/25 01:11:15;;;;;;;;;;;;;;;;;;5056830;28;19909;-66
2023/03/25 01:13:41;;;;;;;;;;;;;;;;;;5056391;28;19909;-66
2023/03/25 01:16:07;;;;;;;;;;;;;;;;;;5056823;28;19952;-66
2023/03/25 01:18:36;;;;;;;;;;;;;;;;;;5055264;28;19908;-66
2023/03/25 01:21:02;;;;;;;;;;;;;;;;;;5056014;28;19908;-66
2023/03/25 01:23:28;;;;;;;;;;;;;;;;;;5055177;28;19909;-66
2023/03/25 01:25:54;;;;;;;;;;;;;;;;;;5056384;28;19916;-67
2023/03/25 01:28:20;;;;;;;;;;;;;;;;;;5054716;28;19909;-67
2023/03/25 01:30:46;;;;;;;;;;;;;;;;;;5056353;28;19909;-68
2023/03/25 01:33:12;;;;;;;;;;;;;;;;;;5056540;28;19915;-66
2023/03/25 01:35:38;;;;;;;;;;;;;;;;;;5054490;28;19916;-66
2023/03/25 01:38:04;;;;;;;;;;;;;;;;;;5056163;28;19913;-66
2023/03/25 01:40:30;;;;;;;;;;;;;;;;;;5056129;28;19915;-66
2023/03/25 01:42:56;;;;;;;;;;;;;;;;;;5054313;28;20020;-67
2023/03/25 01:45:21;;;;;;;;;;;;;;;;;;5056072;28;19909;-67
2023/03/25 01:47:47;;;;;;;;;;;;;;;;;;5055991;28;19913;-67
2023/03/25 01:50:14;;;;;;;;;;;;;;;;;;5055597;28;20285;-67
2023/03/25 01:52:40;;;;;;;;;;;;;;;;;;5055942;28;20005;-67
2023/03/25 01:55:06;;;;;;;;;;;;;;;;;;5054251;28;19909;-67
2023/03/25 01:57:32;;;;;;;;;;;;;;;;;;5055805;28;19915;-67
2023/03/25 01:59:58;;;;;;;;;;;;;;;;;;5055952;28;19917;-67
2023/03/25 02:02:35;;;;;;;;;;;;;;;;;;5055217;28;19924;-67
2023/03/25 02:05:01;;;;;;;;;;;;;;;;;;5055734;28;19948;-67
2023/03/25 02:07:29;;;;;;;;;;;;;;;;;;5055660;28;19971;-67
2023/03/25 02:09:55;;;;;;;;;;;;;;;;;;5055190;28;19916;-67
2023/03/25 02:12:21;;;;;;;;;;;;;;;;;;5054249;28;19915;-67
2023/03/25 02:14:47;;;;;;;;;;;;;;;;;;5054176;28;19919;-67
2023/03/25 02:17:13;;;;;;;;;;;;;;;;;;5053789;28;20047;-67
2023/03/25 02:19:39;;;;;;;;;;;;;;;;;;5055402;28;19932;-67
2023/03/25 02:22:06;;;;;;;;;;;;;;;;;;5055276;28;20090;-67
2023/03/25 02:24:34;;;;;;;;;;;;;;;;;;5054881;28;19998;-67
2023/03/25 02:27:00;;;;;;;;;;;;;;;;;;5055807;28;20001;-67
2023/03/25 02:29:26;;;;;;;;;;;;;;;;;;5053955;28;19944;-67
2023/03/25 02:31:52;;;;;;;;;;;;;;;;;;5054818;28;19927;-67
2023/03/25 02:34:18;;;;;;;;;;;;;;;;;;5055654;28;19912;-67
2023/03/25 02:36:44;;;;;;;;;;;;;;;;;;5055100;28;20284;-67
2023/03/25 02:39:10;;;;;;;;;;;;;;;;;;5053371;28;19909;-67
2023/03/25 02:41:36;;;;;;;;;;;;;;;;;;5054945;28;19912;-67
2023/03/25 02:44:02;;;;;;;;;;;;;;;;;;5054892;28;19944;-67
2023/03/25 02:46:28;;;;;;;;;;;;;;;;;;5054419;28;20415;-67
2023/03/25 02:48:54;;;;;;;;;;;;;;;;;;5055371;28;20326;-67
2023/03/25 02:51:20;;;;;;;;;;;;;;;;;;5054483;28;20333;-67
2023/03/25 02:53:46;;;;;;;;;;;;;;;;;;5054764;28;19970;-67
2023/03/25 02:56:13;;;;;;;;;;;;;;;;;;5054747;28;19932;-67
2023/03/25 02:58:39;;;;;;;;;;;;;;;;;;5054316;28;19908;-67
2023/03/25 03:01:05;;;;;;;;;;;;;;;;;;5054160;28;20023;-67
2023/03/25 03:03:31;;;;;;;;;;;;;;;;;;5053283;28;19955;-67
2023/03/25 03:05:57;;;;;;;;;;;;;;;;;;5054024;28;19959;-67
2023/03/25 03:08:23;;;;;;;;;;;;;;;;;;5055029;28;20385;-67
2023/03/25 03:10:49;;;;;;;;;;;;;;;;;;5053932;28;20357;-67
2023/03/25 03:13:15;;;;;;;;;;;;;;;;;;5054121;28;20364;-67
2023/03/25 03:15:41;;;;;;;;;;;;;;;;;;5054286;28;20317;-67
2023/03/25 03:18:07;;;;;;;;;;;;;;;;;;5053038;28;20327;-67
2023/03/25 03:20:33;;;;;;;;;;;;;;;;;;5053839;28;19999;-67
2023/03/25 03:23:00;;;;;;;;;;;;;;;;;;5052848;28;19916;-67
2023/03/25 03:25:26;;;;;;;;;;;;;;;;;;5052894;28;19908;-67
2023/03/25 03:27:52;;;;;;;;;;;;;;;;;;5053793;28;19916;-67
2023/03/25 03:30:18;;;;;;;;;;;;;;;;;;5052775;28;19908;-67
2023/03/25 03:32:44;;;;;;;;;;;;;;;;;;5054605;28;20258;-68
2023/03/25 03:35:10;;;;;;;;;;;;;;;;;;5052290;28;19909;-68
2023/03/25 03:37:36;;;;;;;;;;;;;;;;;;5053995;28;19909;-68
2023/03/25 03:40:02;;;;;;;;;;;;;;;;;;5053921;28;19915;-67
2023/03/25 03:42:28;;;;;;;;;;;;;;;;;;5053466;28;19921;-67
2023/03/25 03:44:55;;;;;;;;;;;;;;;;;;5053863;28;19932;-67
2023/03/25 03:47:21;;;;;;;;;;;;;;;;;;5053816;28;19908;-67
2023/03/25 03:49:47;;;;;;;;;;;;;;;;;;5053378;28;20012;-67
2023/03/25 03:52:12;;;;;;;;;;;;;;;;;;5053757;28;20320;-67
2023/03/25 03:54:38;;;;;;;;;;;;;;;;;;5052159;28;20327;-67
2023/03/25 03:57:04;;;;;;;;;;;;;;;;;;5052456;28;20316;-67
2023/03/25 03:59:33;;;;;;;;;;;;;;;;;;5053701;28;20344;-67
2023/03/25 04:01:59;;;;;;;;;;;;;;;;;;5053299;28;19925;-67
2023/03/25 04:04:25;;;;;;;;;;;;;;;;;;5053663;28;19985;-67
2023/03/25 04:06:55;;;;;;;;;;;;;;;;;;5053648;28;19919;-67
2023/03/25 04:09:26;;;;;;;;;;;;;;;;;;5053351;28;19961;-68
2023/03/25 04:11:52;;;;;;;;;;;;;;;;;;5053597;28;20388;-68
2023/03/25 04:14:18;;;;;;;;;;;;;;;;;;5053629;28;19913;-68
2023/03/25 04:16:44;;;;;;;;;;;;;;;;;;5051901;28;19909;-66
2023/03/25 04:19:12;;;;;;;;;;;;;;;;;;5053730;28;19920;-67
2023/03/25 04:21:38;;;;;;;;;;;;;;;;;;5053474;28;19967;-67
2023/03/25 04:24:07;;;;;;;;;;;;;;;;;;5055981;28;19912;-67
2023/03/25 04:26:36;;;;;;;;;;;;;;;;;;5057524;28;19912;-67
2023/03/25 04:29:02;;;;;;;;;;;;;;;;;;5057421;28;20361;-68
2023/03/25 04:31:29;;;;;;;;;;;;;;;;;;5055777;28;19917;-68
2023/03/25 04:33:56;;;;;;;;;;;;;;;;;;5057383;28;19912;-68
2023/03/25 04:36:22;;;;;;;;;;;;;;;;;;5057259;28;19999;-68
2023/03/25 04:38:48;;;;;;;;;;;;;;;;;;5056991;28;20353;-67
2023/03/25 04:41:14;;;;;;;;;;;;;;;;;;5057154;28;20280;-68
2023/03/25 04:43:44;;;;;;;;;;;;;;;;;;5057281;28;19916;-68
2023/03/25 04:46:10;;;;;;;;;;;;;;;;;;5055435;28;19955;-68
2023/03/25 04:48:40;;;;;;;;;;;;;;;;;;5057086;28;20320;-68
2023/03/25 04:51:09;;;;;;;;;;;;;;;;;;5057103;28;19915;-68
2023/03/25 04:53:34;;;;;;;;;;;;;;;;;;5057360;28;20291;-68
2023/03/25 04:56:00;;;;;;;;;;;;;;;;;;5057028;28;19909;-68
2023/03/25 04:58:27;;;;;;;;;;;;;;;;;;5056566;28;19915;-68
2023/03/25 05:00:53;;;;;;;;;;;;;;;;;;5057250;28;20269;-68
2023/03/25 05:03:26;;;;;;;;;;;;;;;;;;5056914;28;19933;-68
2023/03/25 05:05:52;;;;;;;;;;;;;;;;;;5056365;28;19936;-68
2023/03/25 05:08:20;;;;;;;;;;;;;;;;;;5055764;28;19913;-66
2023/03/25 05:10:46;;;;;;;;;;;;;;;;;;5056725;28;20357;-66
2023/03/25 05:13:12;;;;;;;;;;;;;;;;;;5056252;28;19909;-66
2023/03/25 05:15:38;;;;;;;;;;;;;;;;;;5056714;28;19963;-67
2023/03/25 05:18:05;;;;;;;;;;;;;;;;;;5055259;28;19916;-66
2023/03/25 05:20:33;;;;;;;;;;;;;;;;;;5054842;28;20396;-66
2023/03/25 05:23:00;;;;;;;;;;;;;;;;;;5056668;28;19917;-66
2023/03/25 05:25:27;;;;;;;;;;;;;;;;;;5055063;28;19909;-66
2023/03/25 05:27:53;;;;;;;;;;;;;;;;;;5055890;28;19909;-66
2023/03/25 05:30:19;;;;;;;;;;;;;;;;;;5054953;28;20051;-66
2023/03/25 05:32:49;;;;;;;;;;;;;;;;;;5055011;28;19916;-68
2023/03/25 05:35:15;;;;;;;;;;;;;;;;;;5054064;28;19959;-67
2023/03/25 05:37:42;;;;;;;;;;;;;;;;;;5056407;28;19995;-67
2023/03/25 05:40:09;;;;;;;;;;;;;;;;;;5055732;28;19909;-67
2023/03/25 05:42:36;;;;;;;;;;;;;;;;;;5054773;28;19917;-67
2023/03/25 05:45:02;;;;;;;;;;;;;;;;;;5056102;28;19909;-67
2023/03/25 05:47:29;;;;;;;;;;;;;;;;;;5055574;28;20510;-67
2023/03/25 05:49:55;;;;;;;;;;;;;;;;;;5054616;28;19916;-67
2023/03/25 05:52:26;;;;;;;;;;;;;;;;;;5054694;28;19908;-67
2023/03/25 05:54:52;;;;;;;;;;;;;;;;;;5055474;28;19913;-67
2023/03/25 05:57:18;;;;;;;;;;;;;;;;;;5055865;28;19967;-67
2023/03/25 05:59:44;;;;;;;;;;;;;;;;;;5055693;28;19909;-67
2023/03/25 06:02:10;;;;;;;;;;;;;;;;;;5055063;28;20431;-67
2023/03/25 06:04:36;;;;;;;;;;;;;;;;;;5054374;28;20366;-67
2023/03/25 06:07:02;;;;;;;;;;;;;;;;;;5056065;28;20004;-67
2023/03/25 06:09:33;;;;;;;;;;;;;;;;;;5055186;28;19955;-67
2023/03/25 06:12:00;;;;;;;;;;;;;;;;;;5054342;28;20418;-67
2023/03/25 06:14:26;;;;;;;;;;;;;;;;;;5055490;28;19909;-67
2023/03/25 06:16:52;;;;;;;;;;;;;;;;;;5055134;28;19909;-67
2023/03/25 06:19:18;;;;;;;;;;;;;;;;;;5054069;28;19915;-66
2023/03/25 06:21:50;;;;;;;;;;;;;;;;;;5053984;28;20002;-67
2023/03/25 06:24:16;;;;;;;;;;;;;;;;;;5055059;28;19939;-66
2023/03/25 06:26:42;;;;;;;;;;;;;;;;;;5055211;28;19908;-66
2023/03/25 06:29:08;;;;;;;;;;;;;;;;;;5055836;28;19913;-66
2023/03/25 06:31:34;;;;;;;;;;;;;;;;;;5054775;28;19909;-67
2023/03/25 06:34:00;;;;;;;;;;;;;;;;;;5055175;28;19923;-67
2023/03/25 06:36:26;;;;;;;;;;;;;;;;;;5053462;28;19947;-66
2023/03/25 06:38:52;;;;;;;;;;;;;;;;;;5053740;28;19948;-66
2023/03/25 06:41:19;;;;;;;;;;;;;;;;;;5054911;28;19924;-67
2023/03/25 06:43:45;;;;;;;;;;;;;;;;;;5053277;28;19913;-67
2023/03/25 06:46:11;;;;;;;;;;;;;;;;;;5054107;28;19909;-67
2023/03/25 06:48:37;;;;;;;;;;;;;;;;;;5054767;28;19913;-67
2023/03/25 06:51:03;;;;;;;;;;;;;;;;;;5054589;28;19916;-67
2023/03/25 06:53:29;;;;;;;;;;;;;;;;;;5054795;28;19934;-67
2023/03/25 06:55:55;;;;;;;;;;;;;;;;;;5054738;28;19975;-68
2023/03/25 06:58:21;;;;;;;;;;;;;;;;;;5054240;28;19913;-67
2023/03/25 07:00:47;;;;;;;;;;;;;;;;;;5054412;28;19912;-67
2023/03/25 07:03:13;;;;;;;;;;;;;;;;;;5053463;28;19917;-67
2023/03/25 07:05:39;;;;;;;;;;;;;;;;;;5052954;28;19951;-68
2023/03/25 07:08:05;;;;;;;;;;;;;;;;;;5053246;28;19915;-68
2023/03/25 07:10:31;;;;;;;;;;;;;;;;;;5054404;28;19943;-68
2023/03/25 07:12:57;;;;;;;;;;;;;;;;;;5053974;28;19962;-67
2023/03/25 07:15:22;;;;;;;;;;;;;;;;;;5054382;28;19912;-68
2023/03/25 07:17:49;;;;;;;;;;;;;;;;;;5054273;28;19909;-68
2023/03/25 07:20:15;;;;;;;;;;;;;;;;;;5053831;28;19947;-67
2023/03/25 07:22:40;;;;;;;;;;;;;;;;;;5054115;28;19963;-67
2023/03/25 07:25:06;;;;;;;;;;;;;;;;;;5054433;28;19908;-67
2023/03/25 07:27:32;;;;;;;;;;;;;;;;;;5053714;28;19996;-68
2023/03/25 07:29:58;;;;;;;;;;;;;;;;;;5054342;28;19908;-68
2023/03/25 07:32:24;;;;;;;;;;;;;;;;;;5054093;28;19916;-68
2023/03/25 07:34:50;;;;;;;;;;;;;;;;;;5053587;28;19909;-68
2023/03/25 07:37:16;;;;;;;;;;;;;;;;;;5054009;28;19912;-68
2023/03/25 07:39:42;;;;;;;;;;;;;;;;;;5053848;28;19909;-68
2023/03/25 07:42:08;;;;;;;;;;;;;;;;;;5053830;28;19917;-68
2023/03/25 07:44:34;;;;;;;;;;;;;;;;;;5053910;28;19909;-68
2023/03/25 07:47:00;;;;;;;;;;;;;;;;;;5053851;28;19908;-68
2023/03/25 07:49:26;;;;;;;;;;;;;;;;;;5053877;28;19909;-68
2023/03/25 07:51:52;;;;;;;;;;;;;;;;;;5053829;28;19948;-68
2023/03/25 07:54:21;;;;;;;;;;;;;;;;;;5053549;28;19909;-68
2023/03/25 07:56:47;;;;;;;;;;;;;;;;;;5053764;28;20423;-68
2023/03/25 08:00:40;;;;;;;;;;;;;;;;;;5111927;27;19934;-66
2023/03/25 08:03:44;;;;;;;;;;;;;;;;;;5112564;27;19922;-68
2023/03/25 08:11:10;;;;;;;;;;;;;;;;;;5112662;27;19916;-66
2023/03/25 08:13:36;;;;;;;;;;;;;;;;;;5112159;28;20413;-68
2023/03/25 08:16:01;;;;;;;;;;;;;;;;;;5111168;28;19908;-66
2023/03/25 08:18:27;;;;;;;;;;;;;;;;;;5110314;28;20328;-68
2023/03/25 08:20:54;;;;;;;;;;;;;;;;;;5111515;28;20289;-67
2023/03/25 08:23:21;;;;;;;;;;;;;;;;;;5109839;28;19909;-67
2023/03/25 08:25:50;;;;;;;;;;;;;;;;;;5112022;28;19908;-67
2023/03/25 08:28:21;;;;;;;;;;;;;;;;;;5111648;28;19908;-68
2023/03/25 08:30:48;;;;;;;;;;;;;;;;;;5111139;28;19970;-67
2023/03/25 08:36:50;;;;;;;;;;;;;;;;;;5111812;27;19916;-67
2023/03/25 08:39:17;;;;;;;;;;;;;;;;;;5111852;28;19999;-67
2023/03/25 08:41:43;;;;;;;;;;;;;;;;;;5111859;28;19951;-68
2023/03/25 08:44:09;;;;;;;;;;;;;;;;;;5111343;28;20345;-68
2023/03/25 08:46:35;;;;;;;;;;;;;;;;;;5111552;28;19908;-67
2023/03/25 08:53:59;;;;;;;;;;;;;;;;;;5111863;27;19916;-66
2023/03/25 08:56:38;;;;;;;;;;;;;;;;;;5112561;27;20382;-67
2023/03/25 09:04:47;;;;;;;;;;;;;;;;;;5111841;27;19918;-68
2023/03/25 09:08:54;;;;;;;;;;;;;;;;;;5112422;27;19916;-67
2023/03/25 09:11:20;;;;;;;;;;;;;;;;;;5111341;28;19912;-67
2023/03/25 09:20:17;;;;;;;;;;;;;;;;;;5111332;27;19922;-67
2023/03/25 09:22:43;;;;;;;;;;;;;;;;;;5110346;28;19994;-67
2023/03/25 09:25:09;;;;;;;;;;;;;;;;;;5110325;28;19950;-67
2023/03/25 09:29:15;;;;;;;;;;;;;;;;;;5112235;27;19912;-66
2023/03/25 09:31:41;;;;;;;;;;;;;;;;;;5111724;28;19948;-67
2023/03/25 09:35:02;;;;;;;;;;;;;;;;;;5071892;28;19923;-69
2023/03/25 09:37:28;;;;;;;;;;;;;;;;;;5071244;28;20003;-68
2023/03/25 09:42:29;;;;;;;;;;;;;;;;;;5112461;27;20291;-66
2023/03/25 09:44:57;;;;;;;;;;;;;;;;;;5111691;28;19919;-67
2023/03/25 09:47:23;;;;;;;;;;;;;;;;;;5111189;28;19953;-68
2023/03/25 09:54:32;;;;;;;;;;;;;;;;;;5132212;27;19916;-67
2023/03/25 10:00:13;;;;;;;;;;;;;;;;;;5153371;27;20002;-67
2023/03/25 10:02:39;;;;;;;;;;;;;;;;;;5152607;27;19958;-67
2023/03/25 10:05:05;;;;;;;;;;;;;;;;;;5152861;27;20279;-68
2023/03/25 10:07:55;;;;;;;;;;;;;;;;;;5111583;27;20018;-67
2023/03/25 10:11:53;;;;;;;;;;;;;;;;;;5072055;28;20260;-67
2023/03/25 10:15:57;;;;;;;;;;;;;;;;;;5091169;27;19913;-66
2023/03/25 10:18:23;;;;;;;;;;;;;;;;;;5091346;28;19999;-67
2023/03/25 10:24:54;;;;;;;;;;;;;;;;;;5112548;27;19923;-67
2023/03/25 10:29:23;;;;;;;;;;;;;;;;;;5111666;27;20307;-68
2023/03/25 10:31:49;;;;;;;;;;;;;;;;;;5111737;28;20012;-68
2023/03/25 10:38:37;;;;;;;;;;;;;;;;;;5071798;28;19923;-66
2023/03/25 10:41:03;;;;;;;;;;;;;;;;;;5071210;28;20003;-67
2023/03/25 10:43:29;;;;;;;;;;;;;;;;;;5070817;28;19909;-68
2023/03/25 10:45:55;;;;;;;;;;;;;;;;;;5071004;28;19909;-67
2023/03/25 10:49:20;;;;;;;;;;;;;;;;;;5112495;27;19923;-66
2023/03/25 10:53:58;;;;;;;;;;;;;;;;;;5112591;27;19922;-67
2023/03/25 10:56:24;;;;;;;;;;;;;;;;;;5111962;28;20406;-67
2023/03/25 10:58:50;;;;;;;;;;;;;;;;;;5111265;28;20318;-67
2023/03/25 11:06:13;;;;;;;;;;;;;;;;;;5091881;28;19919;-67
2023/03/25 11:08:39;;;;;;;;;;;;;;;;;;5091367;28;19966;-67
2023/03/25 11:11:07;;;;;;;;;;;;;;;;;;5090824;28;19908;-67
2023/03/25 11:13:33;;;;;;;;;;;;;;;;;;5091268;28;19909;-67
2023/03/25 11:15:59;;;;;;;;;;;;;;;;;;5091029;28;19916;-67
2023/03/25 11:18:25;;;;;;;;;;;;;;;;;;5090701;28;19908;-67
2023/03/25 11:23:21;;;;;;;;;;;;;;;;;;5071924;28;19917;-67
2023/03/25 11:25:47;;;;;;;;;;;;;;;;;;5070769;28;19948;-67
2023/03/25 11:28:53;;;;;;;;;;;;;;;;;;5112478;27;19916;-67
2023/03/25 11:31:19;;;;;;;;;;;;;;;;;;5111736;28;19999;-68
2023/03/25 11:33:45;;;;;;;;;;;;;;;;;;5111264;28;19908;-67
2023/03/25 11:36:11;;;;;;;;;;;;;;;;;;5111625;28;19909;-67
2023/03/25 11:38:37;;;;;;;;;;;;;;;;;;5111460;28;19933;-68
2023/03/25 11:41:03;;;;;;;;;;;;;;;;;;5111159;28;19919;-67
2023/03/25 11:45:48;;;;;;;;;;;;;;;;;;5091656;27;19916;-67
2023/03/25 11:48:26;;;;;;;;;;;;;;;;;;5112406;27;19916;-67
2023/03/25 11:52:50;;;;;;;;;;;;;;;;;;5091757;27;19912;-67
2023/03/25 11:55:16;;;;;;;;;;;;;;;;;;5090852;28;19982;-67
2023/03/25 12:02:11;;;;;;;;;;;;;;;;;;5111367;27;19916;-67
2023/03/25 12:07:30;;;;;;;;;;;;;;;;;;5111884;27;19912;-68
2023/03/25 12:09:56;;;;;;;;;;;;;;;;;;5110458;28;20003;-68
2023/03/25 12:12:22;;;;;;;;;;;;;;;;;;5110540;28;19909;-68
2023/03/25 12:14:48;;;;;;;;;;;;;;;;;;5109810;28;19915;-68
2023/03/25 12:17:14;;;;;;;;;;;;;;;;;;5110506;28;19908;-68
2023/03/25 12:19:41;;;;;;;;;;;;;;;;;;5110253;28;19908;-68
2023/03/25 12:22:07;;;;;;;;;;;;;;;;;;5111100;28;19912;-68
2023/03/25 12:24:33;;;;;;;;;;;;;;;;;;5111399;28;19976;-68
2023/03/25 12:26:59;;;;;;;;;;;;;;;;;;5111284;28;20380;-68
2023/03/25 12:29:25;;;;;;;;;;;;;;;;;;5109631;28;20046;-68
2023/03/25 12:35:36;;;;;;;;;;;;;;;;;;5091598;27;19922;-67
2023/03/25 12:38:02;;;;;;;;;;;;;;;;;;5091304;28;20011;-67
2023/03/25 12:41:18;;;;;;;;;;;;;;;;;;5092110;28;19919;-67
2023/03/25 12:43:44;;;;;;;;;;;;;;;;;;5090995;28;20003;-68
2023/03/25 12:48:55;;;;;;;;;;;;;;;;;;5112434;27;19918;-66
2023/03/25 12:51:21;;;;;;;;;;;;;;;;;;5111266;28;19912;-67
2023/03/25 12:53:47;;;;;;;;;;;;;;;;;;5111861;28;19934;-66
2023/03/25 12:56:13;;;;;;;;;;;;;;;;;;5111216;28;19914;-67
2023/03/25 12:58:39;;;;;;;;;;;;;;;;;;5111516;28;20213;-67
2023/03/25 13:01:05;;;;;;;;;;;;;;;;;;5111515;28;19947;-67
2023/03/25 13:03:31;;;;;;;;;;;;;;;;;;5111095;28;19908;-67
2023/03/25 13:06:34;;;;;;;;;;;;;;;;;;5112454;27;19916;-66
2023/03/25 13:09:12;;;;;;;;;;;;;;;;;;5111981;27;20368;-67
2023/03/25 13:11:38;;;;;;;;;;;;;;;;;;5111227;28;19918;-67
2023/03/25 13:14:04;;;;;;;;;;;;;;;;;;5110267;28;20013;-67
2023/03/25 13:16:30;;;;;;;;;;;;;;;;;;5111534;28;19943;-69
2023/03/25 13:21:51;;;;;;;;;;;;;;;;;;5092104;27;20377;-67
2023/03/25 13:24:17;;;;;;;;;;;;;;;;;;5091368;28;19913;-67
2023/03/25 13:26:43;;;;;;;;;;;;;;;;;;5089562;28;19953;-67
2023/03/25 13:29:10;;;;;;;;;;;;;;;;;;5091153;28;20344;-67
2023/03/25 13:31:36;;;;;;;;;;;;;;;;;;5090780;28;19908;-67
2023/03/25 13:34:02;;;;;;;;;;;;;;;;;;5091141;28;19908;-67
2023/03/25 13:36:56;;;;;;;;;;;;;;;;;;5092178;27;19917;-67
2023/03/25 13:39:22;;;;;;;;;;;;;;;;;;5091183;28;20007;-67
2023/03/25 13:41:48;;;;;;;;;;;;;;;;;;5091550;28;19915;-67
2023/03/25 13:44:14;;;;;;;;;;;;;;;;;;5091617;28;19915;-68
2023/03/25 13:46:40;;;;;;;;;;;;;;;;;;5089644;28;19908;-68
2023/03/25 13:49:06;;;;;;;;;;;;;;;;;;5091218;28;19912;-67
2023/03/25 13:51:32;;;;;;;;;;;;;;;;;;5089870;28;20391;-67
2023/03/25 13:53:58;;;;;;;;;;;;;;;;;;5090583;28;19908;-67
2023/03/25 13:56:24;;;;;;;;;;;;;;;;;;5089731;28;19916;-67
2023/03/25 13:58:50;;;;;;;;;;;;;;;;;;5090911;28;20395;-68
2023/03/25 14:01:19;;;;;;;;;;;;;;;;;;5090633;28;20394;-67
2023/03/25 14:04:48;;;;;;;;;;;;;;;;;;5071867;28;19920;-67
2023/03/25 14:07:14;;;;;;;;;;;;;;;;;;5070813;28;20284;-67
2023/03/25 14:13:00;;;;;;;;;;;;;;;;;;5092193;27;19916;-67
2023/03/25 14:15:26;;;;;;;;;;;;;;;;;;5090864;28;19913;-67
2023/03/25 14:17:53;;;;;;;;;;;;;;;;;;5091252;28;19931;-67
2023/03/25 14:25:32;;;;;;;;;;;;;;;;;;5091504;27;19934;-67
2023/03/25 14:27:58;;;;;;;;;;;;;;;;;;5089620;28;19924;-67
2023/03/25 14:32:16;;;;;;;;;;;;;;;;;;5111983;27;19916;-67
2023/03/25 14:36:01;;;;;;;;;;;;;;;;;;5091191;27;20287;-67
2023/03/25 14:38:27;;;;;;;;;;;;;;;;;;5091895;28;19999;-66
2023/03/25 14:40:58;;;;;;;;;;;;;;;;;;5091244;28;19952;-66
2023/03/25 14:45:07;;;;;;;;;;;;;;;;;;5112451;27;19916;-67
2023/03/25 14:53:40;;;;;;;;;;;;;;;;;;5112575;27;19916;-67
2023/03/25 14:56:06;;;;;;;;;;;;;;;;;;5111483;28;19927;-67
2023/03/25 14:58:32;;;;;;;;;;;;;;;;;;5111632;28;19969;-67
2023/03/25 15:00:58;;;;;;;;;;;;;;;;;;5111609;28;20368;-67
2023/03/25 15:03:24;;;;;;;;;;;;;;;;;;5111097;28;19943;-67
2023/03/25 15:06:36;;;;;;;;;;;;;;;;;;5112526;27;19916;-67
2023/03/25 15:11:48;;;;;;;;;;;;;;;;;;5111479;27;19922;-68
2023/03/25 15:17:17;;;;;;;;;;;;;;;;;;5091406;27;20284;-67
2023/03/25 15:19:43;;;;;;;;;;;;;;;;;;5090067;28;19999;-67
2023/03/25 15:22:09;;;;;;;;;;;;;;;;;;5091489;28;20341;-68
2023/03/25 15:27:10;;;;;;;;;;;;;;;;;;5071862;28;19916;-67
2023/03/25 15:31:22;;;;;;;;;;;;;;;;;;5091553;27;19916;-67
2023/03/25 15:35:24;;;;;;;;;;;;;;;;;;5091892;27;19917;-67
2023/03/25 15:37:50;;;;;;;;;;;;;;;;;;5091271;28;19916;-67
2023/03/25 15:40:16;;;;;;;;;;;;;;;;;;5089535;28;20331;-68
2023/03/25 15:42:42;;;;;;;;;;;;;;;;;;5091265;28;19998;-68
2023/03/25 15:45:08;;;;;;;;;;;;;;;;;;5090805;28;19982;-68
2023/03/25 15:47:34;;;;;;;;;;;;;;;;;;5091334;28;19908;-68
2023/03/25 15:50:01;;;;;;;;;;;;;;;;;;5089746;28;19931;-68
2023/03/25 15:52:26;;;;;;;;;;;;;;;;;;5091053;28;19952;-67
2023/03/25 15:54:52;;;;;;;;;;;;;;;;;;5090973;28;19944;-67
2023/03/25 15:57:18;;;;;;;;;;;;;;;;;;5091336;28;20310;-68
2023/03/25 15:59:44;;;;;;;;;;;;;;;;;;5090616;28;20326;-67
2023/03/25 16:02:10;;;;;;;;;;;;;;;;;;5090871;28;19919;-67
2023/03/25 16:04:36;;;;;;;;;;;;;;;;;;5090827;28;19908;-67
2023/03/25 16:07:02;;;;;;;;;;;;;;;;;;5090372;28;19954;-67
2023/03/25 16:09:28;;;;;;;;;;;;;;;;;;5090739;28;19908;-67
2023/03/25 16:11:54;;;;;;;;;;;;;;;;;;5089445;28;19908;-67
2023/03/25 16:14:20;;;;;;;;;;;;;;;;;;5090475;28;19916;-67
2023/03/25 16:16:46;;;;;;;;;;;;;;;;;;5090605;28;19995;-67
2023/03/25 16:19:12;;;;;;;;;;;;;;;;;;5090829;28;20369;-67
2023/03/25 16:21:38;;;;;;;;;;;;;;;;;;5088878;28;19974;-67
2023/03/25 16:24:04;;;;;;;;;;;;;;;;;;5089313;28;19912;-67
2023/03/25 16:26:30;;;;;;;;;;;;;;;;;;5089078;28;19908;-67
2023/03/25 16:28:56;;;;;;;;;;;;;;;;;;5088679;28;19909;-67
2023/03/25 16:31:22;;;;;;;;;;;;;;;;;;5090457;28;19909;-67
2023/03/25 16:33:48;;;;;;;;;;;;;;;;;;5097465;28;20011;-67
2023/03/25 16:36:14;;;;;;;;;;;;;;;;;;5110183;28;19912;-67
2023/03/25 16:38:40;;;;;;;;;;;;;;;;;;5110525;28;20033;-68
2023/03/25 16:41:06;;;;;;;;;;;;;;;;;;5092203;28;19908;-68
2023/03/25 16:43:32;;;;;;;;;;;;;;;;;;5110031;28;20268;-68
2023/03/25 16:45:58;;;;;;;;;;;;;;;;;;5082873;28;19908;-68
2023/03/25 16:50:10;;;;;;;;;;;;;;;;;;5091090;27;19917;-69
2023/03/25 16:52:36;;;;;;;;;;;;;;;;;;5091344;28;19981;-69
2023/03/25 16:55:03;;;;;;;;;;;;;;;;;;5091753;28;20385;-69
2023/03/25 16:57:29;;;;;;;;;;;;;;;;;;5090809;28;20343;-67
2023/03/25 16:59:55;;;;;;;;;;;;;;;;;;5091462;28;20050;-66
2023/03/25 17:03:20;;;;;;;;;;;;;;;;;;5152781;27;19918;-67
2023/03/25 17:05:45;;;;;;;;;;;;;;;;;;5152855;27;19915;-67
2023/03/25 17:13:22;;;;;;;;;;;;;;;;;;5111864;27;19912;-68
2023/03/25 17:18:15;;;;;;;;;;;;;;;;;;5091053;27;19939;-67
2023/03/25 17:20:41;;;;;;;;;;;;;;;;;;5091328;28;19912;-68
2023/03/25 17:23:08;;;;;;;;;;;;;;;;;;5091278;28;19909;-67
2023/03/25 17:26:44;;;;;;;;;;;;;;;;;;5092177;28;19938;-68
2023/03/25 17:30:14;;;;;;;;;;;;;;;;;;5153464;27;19919;-68
2023/03/25 17:32:42;;;;;;;;;;;;;;;;;;5152383;27;19911;-68
2023/03/25 17:35:08;;;;;;;;;;;;;;;;;;5152766;27;19939;-69
2023/03/25 17:40:42;;;;;;;;;;;;;;;;;;5112294;27;19919;-68
2023/03/25 17:43:07;;;;;;;;;;;;;;;;;;5112304;28;19918;-68
2023/03/25 17:45:33;;;;;;;;;;;;;;;;;;5111569;28;20306;-67
2023/03/25 17:49:48;;;;;;;;;;;;;;;;;;5112668;27;19912;-69
2023/03/25 17:53:20;;;;;;;;;;;;;;;;;;5111645;27;19922;-69
2023/03/25 17:55:46;;;;;;;;;;;;;;;;;;5110576;28;19912;-68
2023/03/25 17:58:12;;;;;;;;;;;;;;;;;;5111694;28;19953;-69
2023/03/25 18:04:11;;;;;;;;;;;;;;;;;;5112541;27;19916;-67
2023/03/25 18:06:36;;;;;;;;;;;;;;;;;;5110038;28;19912;-68
2023/03/25 18:10:34;;;;;;;;;;;;;;;;;;5153031;27;20426;-68
2023/03/25 18:13:00;;;;;;;;;;;;;;;;;;5133947;27;20290;-68
2023/03/25 18:16:46;;;;;;;;;;;;;;;;;;5112534;27;19922;-68
2023/03/25 18:19:12;;;;;;;;;;;;;;;;;;5112323;28;20006;-68
2023/03/25 18:21:38;;;;;;;;;;;;;;;;;;5110037;28;19908;-67
2023/03/25 18:26:07;;;;;;;;;;;;;;;;;;5111826;27;19916;-69
2023/03/25 18:28:34;;;;;;;;;;;;;;;;;;5111321;28;20455;-68
2023/03/25 18:31:00;;;;;;;;;;;;;;;;;;5111695;28;19915;-67
2023/03/25 18:34:59;;;;;;;;;;;;;;;;;;5071230;28;19923;-67
2023/03/25 18:37:25;;;;;;;;;;;;;;;;;;5071532;28;19913;-68
2023/03/25 18:39:51;;;;;;;;;;;;;;;;;;5071373;28;19908;-68
2023/03/25 18:44:27;;;;;;;;;;;;;;;;;;5112633;27;19922;-68
2023/03/25 18:46:53;;;;;;;;;;;;;;;;;;5111839;28;19955;-68
2023/03/25 18:49:19;;;;;;;;;;;;;;;;;;5111239;28;20348;-66
2023/03/25 18:51:47;;;;;;;;;;;;;;;;;;5110342;28;19918;-67
2023/03/25 18:54:13;;;;;;;;;;;;;;;;;;5111841;28;19990;-67
2023/03/25 18:56:42;;;;;;;;;;;;;;;;;;5109827;28;19947;-67
2023/03/25 18:59:08;;;;;;;;;;;;;;;;;;5111801;28;19908;-68
2023/03/25 19:01:34;;;;;;;;;;;;;;;;;;5111380;28;20356;-68
2023/03/25 19:04:01;;;;;;;;;;;;;;;;;;5109587;28;19916;-68
2023/03/25 19:06:27;;;;;;;;;;;;;;;;;;5110084;28;19908;-68
2023/03/25 19:08:53;;;;;;;;;;;;;;;;;;5111334;28;20016;-68
2023/03/25 19:11:19;;;;;;;;;;;;;;;;;;5110861;28;19910;-67
2023/03/25 19:13:45;;;;;;;;;;;;;;;;;;5111263;28;19912;-67